Time;durP1;ratioP1;P1;durP2;ratioP2;P2;SDS_P1;SDS_P2;PMS_P1;PMS_P2;Temp;Humidity;BMP_temperature;BMP_pressure;BME280_temperature;BME280_humidity;BME280_pressure;Samples;Min_cycle;Max_cycle;Signal;HPM_P1;HPM_P2
2022/07/08 00:01:57;;;;;;;;;;;;;;;;;;5049480;28;20403;-44
2022/07/08 00:04:22;;;;;;;;;;;;;;;;;;5066664;28;19936;-47
2022/07/08 00:06:48;;;;;;;;;;;;;;;;;;5067030;28;19920;-45
2022/07/08 00:09:14;;;;;;;;;;;;;;;;;;5066934;28;19924;-45
2022/07/08 00:11:41;;;;;;;;;;;;;;;;;;5066740;28;20387;-44
2022/07/08 00:14:07;;;;;;;;;;;;;;;;;;5066894;28;20016;-43
2022/07/08 00:16:33;;;;;;;;;;;;;;;;;;5066532;28;20372;-44
2022/07/08 00:19:00;;;;;;;;;;;;;;;;;;5066680;28;19913;-44
2022/07/08 00:21:26;;;;;;;;;;;;;;;;;;5064650;28;20010;-45
2022/07/08 00:23:52;;;;;;;;;;;;;;;;;;5066296;28;19957;-45
2022/07/08 00:26:19;;;;;;;;;;;;;;;;;;5066235;28;20366;-44
2022/07/08 00:28:45;;;;;;;;;;;;;;;;;;5066817;28;19912;-45
2022/07/08 00:31:11;;;;;;;;;;;;;;;;;;5066374;28;20053;-43
2022/07/08 00:33:37;;;;;;;;;;;;;;;;;;5066407;28;19983;-44
2022/07/08 00:36:04;;;;;;;;;;;;;;;;;;5066384;28;20322;-44
2022/07/08 00:38:30;;;;;;;;;;;;;;;;;;5064903;28;19939;-43
2022/07/08 00:40:56;;;;;;;;;;;;;;;;;;5066826;28;19996;-43
2022/07/08 00:43:21;;;;;;;;;;;;;;;;;;5066482;28;19915;-43
2022/07/08 00:45:47;;;;;;;;;;;;;;;;;;5066497;28;20462;-43
2022/07/08 00:48:13;;;;;;;;;;;;;;;;;;5048341;28;19962;-43
2022/07/08 00:50:39;;;;;;;;;;;;;;;;;;5066296;28;19916;-43
2022/07/08 00:53:05;;;;;;;;;;;;;;;;;;5065697;28;19948;-44
2022/07/08 00:55:31;;;;;;;;;;;;;;;;;;5066193;28;19909;-44
2022/07/08 00:57:57;;;;;;;;;;;;;;;;;;5065579;28;19912;-44
2022/07/08 01:00:24;;;;;;;;;;;;;;;;;;5066031;28;20295;-43
2022/07/08 01:02:51;;;;;;;;;;;;;;;;;;5066394;28;20048;-43
2022/07/08 01:05:17;;;;;;;;;;;;;;;;;;5064177;28;19924;-45
2022/07/08 01:07:43;;;;;;;;;;;;;;;;;;5065441;28;19913;-44
2022/07/08 01:10:09;;;;;;;;;;;;;;;;;;5066115;28;19913;-43
2022/07/08 01:12:35;;;;;;;;;;;;;;;;;;5065881;28;19935;-43
2022/07/08 01:15:01;;;;;;;;;;;;;;;;;;5063511;28;19912;-42
2022/07/08 01:17:27;;;;;;;;;;;;;;;;;;5062460;28;20003;-43
2022/07/08 01:19:53;;;;;;;;;;;;;;;;;;5065948;28;20340;-43
2022/07/08 01:22:19;;;;;;;;;;;;;;;;;;5065948;28;20003;-44
2022/07/08 01:24:46;;;;;;;;;;;;;;;;;;5066513;28;19913;-43
2022/07/08 01:27:11;;;;;;;;;;;;;;;;;;5066465;28;19916;-43
2022/07/08 01:29:37;;;;;;;;;;;;;;;;;;5066295;28;19912;-44
2022/07/08 01:32:03;;;;;;;;;;;;;;;;;;5066570;28;19917;-43
2022/07/08 01:34:29;;;;;;;;;;;;;;;;;;5068916;28;19912;-43
2022/07/08 01:36:55;;;;;;;;;;;;;;;;;;5070996;28;19919;-43
2022/07/08 01:39:21;;;;;;;;;;;;;;;;;;5070482;28;19912;-44
2022/07/08 01:41:47;;;;;;;;;;;;;;;;;;5070477;28;20005;-43
2022/07/08 01:44:13;;;;;;;;;;;;;;;;;;5070304;28;19951;-43
2022/07/08 01:46:40;;;;;;;;;;;;;;;;;;5069888;28;19919;-43
2022/07/08 01:49:06;;;;;;;;;;;;;;;;;;5070583;28;20247;-44
2022/07/08 01:51:32;;;;;;;;;;;;;;;;;;5070101;28;19916;-43
2022/07/08 01:53:58;;;;;;;;;;;;;;;;;;5070442;28;20411;-43
2022/07/08 01:56:24;;;;;;;;;;;;;;;;;;5070044;28;19935;-43
2022/07/08 01:58:50;;;;;;;;;;;;;;;;;;5069989;28;19966;-43
2022/07/08 02:01:16;;;;;;;;;;;;;;;;;;5070082;28;20676;-43
2022/07/08 02:03:42;;;;;;;;;;;;;;;;;;5069871;28;20415;-43
2022/07/08 02:06:08;;;;;;;;;;;;;;;;;;5070081;28;19923;-43
2022/07/08 02:08:34;;;;;;;;;;;;;;;;;;5069620;28;19932;-43
2022/07/08 02:13:44;;;;;;;;;;;;;;;;;;5070087;28;20290;-44
2022/07/08 02:16:10;;;;;;;;;;;;;;;;;;5069801;28;20262;-43
2022/07/08 02:18:36;;;;;;;;;;;;;;;;;;5069303;28;20019;-43
2022/07/08 02:21:02;;;;;;;;;;;;;;;;;;5069721;28;20353;-44
2022/07/08 02:23:28;;;;;;;;;;;;;;;;;;5069572;28;19912;-44
2022/07/08 02:25:54;;;;;;;;;;;;;;;;;;5069852;28;19959;-43
2022/07/08 02:28:20;;;;;;;;;;;;;;;;;;5069155;28;19919;-42
2022/07/08 02:30:46;;;;;;;;;;;;;;;;;;5069436;28;19916;-43
2022/07/08 02:33:12;;;;;;;;;;;;;;;;;;5069384;28;19908;-42
2022/07/08 02:35:38;;;;;;;;;;;;;;;;;;5069266;28;19961;-42
2022/07/08 02:38:04;;;;;;;;;;;;;;;;;;5069482;28;20007;-43
2022/07/08 02:40:30;;;;;;;;;;;;;;;;;;5068963;28;19934;-43
2022/07/08 02:42:56;;;;;;;;;;;;;;;;;;5069464;28;19923;-43
2022/07/08 02:45:22;;;;;;;;;;;;;;;;;;5068971;28;19912;-43
2022/07/08 02:47:49;;;;;;;;;;;;;;;;;;5068926;28;19916;-44
2022/07/08 02:50:15;;;;;;;;;;;;;;;;;;5069091;28;20295;-42
2022/07/08 02:52:41;;;;;;;;;;;;;;;;;;5069030;28;19919;-43
2022/07/08 02:55:07;;;;;;;;;;;;;;;;;;5069142;28;19909;-43
2022/07/08 02:57:33;;;;;;;;;;;;;;;;;;5068554;28;19916;-43
2022/07/08 02:59:59;;;;;;;;;;;;;;;;;;5069167;28;19908;-42
2022/07/08 03:02:24;;;;;;;;;;;;;;;;;;5068745;28;19913;-43
2022/07/08 03:04:53;;;;;;;;;;;;;;;;;;5068853;28;20025;-44
2022/07/08 03:07:19;;;;;;;;;;;;;;;;;;5068371;28;19912;-43
2022/07/08 03:09:45;;;;;;;;;;;;;;;;;;5068919;28;19915;-43
2022/07/08 03:12:11;;;;;;;;;;;;;;;;;;5068671;28;19916;-42
2022/07/08 03:14:37;;;;;;;;;;;;;;;;;;5068513;28;19912;-43
2022/07/08 03:17:02;;;;;;;;;;;;;;;;;;5068319;28;19909;-44
2022/07/08 03:19:28;;;;;;;;;;;;;;;;;;5068480;28;19919;-43
2022/07/08 03:21:54;;;;;;;;;;;;;;;;;;5068930;28;19909;-43
2022/07/08 03:24:20;;;;;;;;;;;;;;;;;;5068360;28;20036;-43
2022/07/08 03:26:46;;;;;;;;;;;;;;;;;;5068202;28;19965;-43
2022/07/08 03:29:12;;;;;;;;;;;;;;;;;;5068672;28;19951;-42
2022/07/08 03:31:39;;;;;;;;;;;;;;;;;;5068104;28;19922;-43
2022/07/08 03:34:05;;;;;;;;;;;;;;;;;;5068202;28;20360;-43
2022/07/08 03:36:31;;;;;;;;;;;;;;;;;;5068085;28;19959;-43
2022/07/08 03:38:57;;;;;;;;;;;;;;;;;;5068436;28;19915;-43
2022/07/08 03:41:23;;;;;;;;;;;;;;;;;;5068158;28;20421;-43
2022/07/08 03:43:49;;;;;;;;;;;;;;;;;;5068123;28;20259;-43
2022/07/08 03:46:15;;;;;;;;;;;;;;;;;;5068215;28;19909;-43
2022/07/08 03:48:42;;;;;;;;;;;;;;;;;;5067456;28;19920;-43
2022/07/08 03:51:09;;;;;;;;;;;;;;;;;;5067881;28;19974;-43
2022/07/08 03:53:34;;;;;;;;;;;;;;;;;;5068067;28;19970;-43
2022/07/08 03:56:01;;;;;;;;;;;;;;;;;;5068227;28;19914;-43
2022/07/08 03:58:26;;;;;;;;;;;;;;;;;;5066794;28;19917;-43
2022/07/08 04:00:52;;;;;;;;;;;;;;;;;;5068250;28;19969;-43
2022/07/08 04:03:18;;;;;;;;;;;;;;;;;;5067324;28;19913;-43
2022/07/08 04:05:44;;;;;;;;;;;;;;;;;;5067950;28;19909;-42
2022/07/08 04:08:10;;;;;;;;;;;;;;;;;;5067311;28;19908;-43
2022/07/08 04:10:36;;;;;;;;;;;;;;;;;;5067282;28;20310;-44
2022/07/08 04:13:02;;;;;;;;;;;;;;;;;;5067767;28;19912;-44
2022/07/08 04:15:28;;;;;;;;;;;;;;;;;;5067333;28;19912;-42
2022/07/08 04:17:54;;;;;;;;;;;;;;;;;;5067483;28;19909;-43
2022/07/08 04:20:20;;;;;;;;;;;;;;;;;;5067231;28;19908;-43
2022/07/08 04:22:46;;;;;;;;;;;;;;;;;;5067451;28;19913;-43
2022/07/08 04:25:12;;;;;;;;;;;;;;;;;;5067430;28;19908;-43
2022/07/08 04:27:38;;;;;;;;;;;;;;;;;;5067138;28;19917;-43
2022/07/08 04:30:04;;;;;;;;;;;;;;;;;;5067372;28;19962;-42
2022/07/08 04:32:29;;;;;;;;;;;;;;;;;;5066726;28;19963;-42
2022/07/08 04:34:59;;;;;;;;;;;;;;;;;;5067748;28;19915;-43
2022/07/08 04:37:25;;;;;;;;;;;;;;;;;;5066923;28;19908;-43
2022/07/08 04:39:51;;;;;;;;;;;;;;;;;;5067595;28;19912;-42
2022/07/08 04:42:17;;;;;;;;;;;;;;;;;;5067011;28;19964;-43
2022/07/08 04:44:43;;;;;;;;;;;;;;;;;;5067134;28;19940;-43
2022/07/08 04:47:09;;;;;;;;;;;;;;;;;;5066815;28;20307;-42
2022/07/08 04:49:35;;;;;;;;;;;;;;;;;;5066562;28;19908;-42
2022/07/08 04:52:01;;;;;;;;;;;;;;;;;;5066827;28;19916;-43
2022/07/08 04:54:28;;;;;;;;;;;;;;;;;;5066816;28;19919;-44
2022/07/08 04:56:54;;;;;;;;;;;;;;;;;;5067157;28;20426;-43
2022/07/08 04:59:21;;;;;;;;;;;;;;;;;;5066423;28;19912;-42
2022/07/08 05:01:47;;;;;;;;;;;;;;;;;;5066969;28;19916;-42
2022/07/08 05:04:13;;;;;;;;;;;;;;;;;;5067133;28;19915;-43
2022/07/08 05:06:39;;;;;;;;;;;;;;;;;;5066326;28;20287;-44
2022/07/08 05:09:05;;;;;;;;;;;;;;;;;;5066655;28;20403;-42
2022/07/08 05:11:32;;;;;;;;;;;;;;;;;;5066478;28;20311;-42
2022/07/08 05:13:58;;;;;;;;;;;;;;;;;;5066710;28;19912;-42
2022/07/08 05:16:25;;;;;;;;;;;;;;;;;;5048466;28;19935;-43
2022/07/08 05:18:51;;;;;;;;;;;;;;;;;;5066646;28;19909;-42
2022/07/08 05:21:16;;;;;;;;;;;;;;;;;;5066567;28;19913;-43
2022/07/08 05:23:43;;;;;;;;;;;;;;;;;;5066558;28;19913;-43
2022/07/08 05:26:08;;;;;;;;;;;;;;;;;;5066733;28;19912;-42
2022/07/08 05:28:34;;;;;;;;;;;;;;;;;;5066254;28;19908;-42
2022/07/08 05:31:01;;;;;;;;;;;;;;;;;;5066474;28;20033;-43
2022/07/08 05:33:27;;;;;;;;;;;;;;;;;;5066210;28;19913;-42
2022/07/08 05:35:53;;;;;;;;;;;;;;;;;;5066727;28;20351;-42
2022/07/08 05:38:19;;;;;;;;;;;;;;;;;;5066063;28;20339;-43
2022/07/08 05:40:45;;;;;;;;;;;;;;;;;;5066599;28;19952;-42
2022/07/08 05:43:11;;;;;;;;;;;;;;;;;;5066588;28;19912;-43
2022/07/08 05:45:37;;;;;;;;;;;;;;;;;;5066079;28;19912;-43
2022/07/08 05:48:04;;;;;;;;;;;;;;;;;;5066237;28;19912;-44
2022/07/08 05:50:30;;;;;;;;;;;;;;;;;;5066072;28;19908;-42
2022/07/08 05:52:56;;;;;;;;;;;;;;;;;;5066616;28;20356;-42
2022/07/08 05:55:22;;;;;;;;;;;;;;;;;;5066114;28;19951;-43
2022/07/08 05:57:48;;;;;;;;;;;;;;;;;;5066045;28;19919;-42
2022/07/08 06:00:14;;;;;;;;;;;;;;;;;;5066427;28;19908;-41
2022/07/08 06:02:40;;;;;;;;;;;;;;;;;;5065570;28;19920;-41
2022/07/08 06:05:07;;;;;;;;;;;;;;;;;;5056245;28;19962;-42
2022/07/08 06:07:33;;;;;;;;;;;;;;;;;;5067331;28;19912;-41
2022/07/08 06:09:59;;;;;;;;;;;;;;;;;;5078108;28;19982;-41
2022/07/08 06:12:25;;;;;;;;;;;;;;;;;;5087795;28;19987;-41
2022/07/08 06:14:51;;;;;;;;;;;;;;;;;;5087999;28;20011;-42
2022/07/08 06:17:17;;;;;;;;;;;;;;;;;;5087252;28;19916;-41
2022/07/08 06:19:43;;;;;;;;;;;;;;;;;;5087606;28;19919;-42
2022/07/08 06:22:09;;;;;;;;;;;;;;;;;;5075730;28;19913;-42
2022/07/08 06:24:35;;;;;;;;;;;;;;;;;;5070927;28;19944;-41
2022/07/08 06:27:01;;;;;;;;;;;;;;;;;;5071077;28;20607;-42
2022/07/08 06:29:27;;;;;;;;;;;;;;;;;;5071061;28;19908;-42
2022/07/08 06:31:53;;;;;;;;;;;;;;;;;;5071101;28;19970;-42
2022/07/08 06:34:19;;;;;;;;;;;;;;;;;;5070302;28;19913;-42
2022/07/08 06:36:45;;;;;;;;;;;;;;;;;;5071106;28;19916;-42
2022/07/08 06:39:10;;;;;;;;;;;;;;;;;;5070923;28;19909;-42
2022/07/08 06:41:36;;;;;;;;;;;;;;;;;;5070636;28;20011;-42
2022/07/08 06:44:02;;;;;;;;;;;;;;;;;;5070251;28;19916;-42
2022/07/08 06:46:28;;;;;;;;;;;;;;;;;;5070398;28;19920;-43
2022/07/08 06:48:54;;;;;;;;;;;;;;;;;;5070658;28;19909;-42
2022/07/08 06:51:20;;;;;;;;;;;;;;;;;;5069984;28;20287;-42
2022/07/08 06:56:48;;;;;;;;;;;;;;;;;;4989344;28;20005;-42
2022/07/08 06:59:14;;;;;;;;;;;;;;;;;;5048099;28;20351;-42
2022/07/08 07:01:40;;;;;;;;;;;;;;;;;;5051812;28;19908;-42
2022/07/08 07:04:06;;;;;;;;;;;;;;;;;;5060150;28;19916;-43
2022/07/08 07:06:31;;;;;;;;;;;;;;;;;;5068234;28;19934;-43
2022/07/08 07:08:58;;;;;;;;;;;;;;;;;;5069615;28;19920;-42
2022/07/08 07:11:24;;;;;;;;;;;;;;;;;;5067795;28;19921;-42
2022/07/08 07:13:49;;;;;;;;;;;;;;;;;;5069741;28;20021;-42
2022/07/08 07:16:15;;;;;;;;;;;;;;;;;;5069466;28;19952;-42
2022/07/08 07:18:41;;;;;;;;;;;;;;;;;;5069616;28;20328;-42
2022/07/08 07:21:07;;;;;;;;;;;;;;;;;;5069791;28;19912;-42
2022/07/08 07:23:33;;;;;;;;;;;;;;;;;;5067286;28;20387;-42
2022/07/08 07:25:59;;;;;;;;;;;;;;;;;;5068045;28;19916;-42
2022/07/08 07:28:25;;;;;;;;;;;;;;;;;;5056250;28;19935;-41
2022/07/08 07:30:51;;;;;;;;;;;;;;;;;;5066378;28;19959;-42
2022/07/08 07:33:17;;;;;;;;;;;;;;;;;;5067927;28;19931;-42
2022/07/08 07:35:42;;;;;;;;;;;;;;;;;;5069566;28;19920;-43
2022/07/08 07:38:08;;;;;;;;;;;;;;;;;;5070390;28;19916;-43
2022/07/08 07:40:34;;;;;;;;;;;;;;;;;;5070344;28;19923;-42
2022/07/08 07:43:00;;;;;;;;;;;;;;;;;;5070248;28;19920;-44
2022/07/08 07:45:26;;;;;;;;;;;;;;;;;;5069906;28;19904;-43
2022/07/08 07:47:52;;;;;;;;;;;;;;;;;;5069630;28;19966;-44
2022/07/08 07:50:18;;;;;;;;;;;;;;;;;;5050810;28;20017;-42
2022/07/08 07:52:44;;;;;;;;;;;;;;;;;;5068798;28;19959;-43
2022/07/08 07:55:10;;;;;;;;;;;;;;;;;;5067979;28;20294;-45
2022/07/08 07:57:36;;;;;;;;;;;;;;;;;;5068198;28;19935;-43
2022/07/08 08:00:02;;;;;;;;;;;;;;;;;;5068866;28;19920;-43
2022/07/08 08:02:28;;;;;;;;;;;;;;;;;;5066408;28;20625;-43
2022/07/08 08:04:54;;;;;;;;;;;;;;;;;;5065956;28;19946;-42
2022/07/08 08:07:21;;;;;;;;;;;;;;;;;;5067811;28;20168;-43
2022/07/08 08:09:47;;;;;;;;;;;;;;;;;;5068980;28;19918;-43
2022/07/08 08:12:12;;;;;;;;;;;;;;;;;;5068674;28;19917;-43
2022/07/08 08:14:38;;;;;;;;;;;;;;;;;;5068189;28;19917;-42
2022/07/08 08:17:05;;;;;;;;;;;;;;;;;;5068738;28;19958;-42
2022/07/08 08:19:31;;;;;;;;;;;;;;;;;;5068299;28;19912;-43
2022/07/08 08:21:57;;;;;;;;;;;;;;;;;;5067855;28;20011;-42
2022/07/08 08:24:23;;;;;;;;;;;;;;;;;;5068574;28;20810;-42
2022/07/08 08:26:49;;;;;;;;;;;;;;;;;;5066391;28;19917;-42
2022/07/08 08:29:15;;;;;;;;;;;;;;;;;;5058905;28;20277;-42
2022/07/08 08:31:41;;;;;;;;;;;;;;;;;;5053558;28;19970;-42
2022/07/08 08:34:08;;;;;;;;;;;;;;;;;;5068594;28;19931;-42
2022/07/08 08:36:34;;;;;;;;;;;;;;;;;;5068136;28;19912;-42
2022/07/08 08:39:00;;;;;;;;;;;;;;;;;;5068062;28;19966;-44
2022/07/08 08:41:26;;;;;;;;;;;;;;;;;;5067502;28;19955;-42
2022/07/08 08:43:52;;;;;;;;;;;;;;;;;;5067814;28;19948;-42
2022/07/08 08:46:18;;;;;;;;;;;;;;;;;;5067651;28;20285;-42
2022/07/08 08:48:44;;;;;;;;;;;;;;;;;;5068066;28;19962;-43
2022/07/08 08:51:11;;;;;;;;;;;;;;;;;;5068222;28;20307;-43
2022/07/08 08:53:41;;;;;;;;;;;;;;;;;;5067726;28;20444;-42
2022/07/08 08:56:07;;;;;;;;;;;;;;;;;;5068178;28;19908;-43
2022/07/08 08:58:33;;;;;;;;;;;;;;;;;;5067097;28;19922;-44
2022/07/08 09:00:59;;;;;;;;;;;;;;;;;;5067856;28;20440;-43
2022/07/08 09:03:24;;;;;;;;;;;;;;;;;;5067838;28;19970;-43
2022/07/08 09:05:50;;;;;;;;;;;;;;;;;;5066295;28;19921;-43
2022/07/08 09:08:16;;;;;;;;;;;;;;;;;;5068119;28;19917;-44
2022/07/08 09:10:42;;;;;;;;;;;;;;;;;;5067981;28;19920;-43
2022/07/08 09:13:10;;;;;;;;;;;;;;;;;;5069637;28;19921;-44
2022/07/08 09:15:36;;;;;;;;;;;;;;;;;;5087723;28;19908;-43
2022/07/08 09:18:02;;;;;;;;;;;;;;;;;;5087949;28;20349;-44
2022/07/08 09:20:28;;;;;;;;;;;;;;;;;;5088270;28;19919;-45
2022/07/08 09:22:53;;;;;;;;;;;;;;;;;;5088286;28;19920;-43
2022/07/08 09:25:19;;;;;;;;;;;;;;;;;;5076563;28;20397;-43
2022/07/08 09:27:46;;;;;;;;;;;;;;;;;;5067579;28;19915;-43
2022/07/08 09:30:15;;;;;;;;;;;;;;;;;;5067659;28;20299;-43
2022/07/08 09:32:41;;;;;;;;;;;;;;;;;;5067030;28;19925;-43
2022/07/08 09:35:07;;;;;;;;;;;;;;;;;;5067932;28;19909;-43
2022/07/08 09:37:35;;;;;;;;;;;;;;;;;;5066983;28;19912;-43
2022/07/08 09:40:01;;;;;;;;;;;;;;;;;;5066495;28;19966;-43
2022/07/08 09:42:27;;;;;;;;;;;;;;;;;;5067235;28;20398;-44
2022/07/08 09:44:53;;;;;;;;;;;;;;;;;;5067589;28;19954;-44
2022/07/08 09:47:19;;;;;;;;;;;;;;;;;;5067546;28;19912;-42
2022/07/08 09:49:46;;;;;;;;;;;;;;;;;;5062871;28;20011;-43
2022/07/08 09:52:12;;;;;;;;;;;;;;;;;;5066624;28;20346;-43
2022/07/08 09:54:38;;;;;;;;;;;;;;;;;;5066866;28;19913;-44
2022/07/08 09:57:04;;;;;;;;;;;;;;;;;;5070646;28;20008;-43
2022/07/08 09:59:30;;;;;;;;;;;;;;;;;;5070990;28;19948;-43
2022/07/08 10:01:56;;;;;;;;;;;;;;;;;;5071406;28;19958;-43
2022/07/08 10:04:23;;;;;;;;;;;;;;;;;;5071061;28;19944;-44
2022/07/08 10:06:50;;;;;;;;;;;;;;;;;;5069671;28;19986;-43
2022/07/08 10:09:16;;;;;;;;;;;;;;;;;;5070633;28;19966;-45
2022/07/08 10:11:42;;;;;;;;;;;;;;;;;;5070640;28;19931;-43
2022/07/08 10:14:08;;;;;;;;;;;;;;;;;;5071352;28;20383;-44
2022/07/08 10:16:34;;;;;;;;;;;;;;;;;;5053266;28;19923;-44
2022/07/08 10:19:00;;;;;;;;;;;;;;;;;;5072109;28;19912;-45
2022/07/08 10:21:26;;;;;;;;;;;;;;;;;;5071929;28;19909;-44
2022/07/08 10:23:52;;;;;;;;;;;;;;;;;;5072252;28;20011;-44
2022/07/08 10:26:18;;;;;;;;;;;;;;;;;;5068924;28;19916;-44
2022/07/08 10:28:44;;;;;;;;;;;;;;;;;;5070900;28;20221;-41
2022/07/08 10:31:10;;;;;;;;;;;;;;;;;;5069782;28;20010;-42
2022/07/08 10:33:36;;;;;;;;;;;;;;;;;;5070419;28;19915;-43
2022/07/08 10:36:03;;;;;;;;;;;;;;;;;;5051849;28;19912;-42
2022/07/08 10:38:30;;;;;;;;;;;;;;;;;;5067839;28;20491;-42
2022/07/08 10:40:56;;;;;;;;;;;;;;;;;;5069950;28;19920;-41
2022/07/08 10:43:22;;;;;;;;;;;;;;;;;;5070229;28;20237;-41
2022/07/08 10:45:48;;;;;;;;;;;;;;;;;;5070755;28;19951;-41
2022/07/08 10:48:14;;;;;;;;;;;;;;;;;;5070097;28;19955;-41
2022/07/08 10:50:40;;;;;;;;;;;;;;;;;;5069826;28;19912;-44
2022/07/08 10:53:07;;;;;;;;;;;;;;;;;;5070657;28;19908;-41
2022/07/08 10:55:33;;;;;;;;;;;;;;;;;;5069555;28;20384;-41
2022/07/08 10:57:59;;;;;;;;;;;;;;;;;;5070087;28;19961;-42
2022/07/08 11:00:25;;;;;;;;;;;;;;;;;;5070144;28;19913;-42
2022/07/08 11:02:51;;;;;;;;;;;;;;;;;;5070505;28;20317;-41
2022/07/08 11:05:17;;;;;;;;;;;;;;;;;;5066876;28;19920;-42
2022/07/08 11:07:43;;;;;;;;;;;;;;;;;;5070763;28;19912;-42
2022/07/08 11:10:09;;;;;;;;;;;;;;;;;;5069157;28;19974;-41
2022/07/08 11:12:35;;;;;;;;;;;;;;;;;;5070639;28;19920;-42
2022/07/08 11:15:01;;;;;;;;;;;;;;;;;;5070895;28;20425;-42
2022/07/08 11:17:27;;;;;;;;;;;;;;;;;;5068290;28;19912;-42
2022/07/08 11:19:53;;;;;;;;;;;;;;;;;;5069616;28;19959;-44
2022/07/08 11:22:19;;;;;;;;;;;;;;;;;;5070452;28;19921;-41
2022/07/08 11:24:45;;;;;;;;;;;;;;;;;;5078117;28;20428;-41
2022/07/08 11:27:11;;;;;;;;;;;;;;;;;;5072116;28;19917;-41
2022/07/08 11:29:38;;;;;;;;;;;;;;;;;;5071004;28;19912;-41
2022/07/08 11:32:04;;;;;;;;;;;;;;;;;;5075708;28;20011;-41
2022/07/08 11:34:30;;;;;;;;;;;;;;;;;;5082594;28;20003;-43
2022/07/08 11:36:56;;;;;;;;;;;;;;;;;;5067214;28;19924;-41
2022/07/08 11:39:21;;;;;;;;;;;;;;;;;;5051702;28;19919;-43
2022/07/08 11:41:48;;;;;;;;;;;;;;;;;;5051696;28;19927;-46
2022/07/08 11:44:18;;;;;;;;;;;;;;;;;;5068414;28;20573;-46
2022/07/08 11:46:44;;;;;;;;;;;;;;;;;;5069733;28;19947;-45
2022/07/08 11:49:10;;;;;;;;;;;;;;;;;;5068580;28;19955;-43
2022/07/08 11:51:36;;;;;;;;;;;;;;;;;;5068819;28;19962;-42
2022/07/08 11:54:02;;;;;;;;;;;;;;;;;;5067714;28;19913;-44
2022/07/08 11:56:29;;;;;;;;;;;;;;;;;;5068616;28;19923;-44
2022/07/08 11:58:56;;;;;;;;;;;;;;;;;;5066420;28;19923;-43
2022/07/08 12:01:22;;;;;;;;;;;;;;;;;;5067879;28;19956;-42
2022/07/08 12:03:47;;;;;;;;;;;;;;;;;;5069146;28;19947;-42
2022/07/08 12:06:14;;;;;;;;;;;;;;;;;;5068784;28;19909;-42
2022/07/08 12:08:40;;;;;;;;;;;;;;;;;;5066561;28;19916;-42
2022/07/08 12:11:06;;;;;;;;;;;;;;;;;;5066702;28;19939;-42
2022/07/08 12:13:34;;;;;;;;;;;;;;;;;;5066704;28;20224;-43
2022/07/08 12:16:00;;;;;;;;;;;;;;;;;;5066947;28;20386;-42
2022/07/08 12:18:25;;;;;;;;;;;;;;;;;;5066162;28;19923;-41
2022/07/08 12:20:51;;;;;;;;;;;;;;;;;;5066696;28;20353;-41
2022/07/08 12:23:17;;;;;;;;;;;;;;;;;;5066265;28;19913;-41
2022/07/08 12:25:43;;;;;;;;;;;;;;;;;;5066861;28;20344;-42
2022/07/08 12:28:09;;;;;;;;;;;;;;;;;;5067298;28;19916;-42
2022/07/08 12:30:35;;;;;;;;;;;;;;;;;;5065990;28;19950;-41
2022/07/08 12:33:01;;;;;;;;;;;;;;;;;;5067266;28;19912;-42
2022/07/08 12:35:30;;;;;;;;;;;;;;;;;;5066107;28;19916;-42
2022/07/08 12:37:55;;;;;;;;;;;;;;;;;;5067412;28;19917;-42
2022/07/08 12:40:21;;;;;;;;;;;;;;;;;;5065892;28;19913;-41
2022/07/08 12:42:47;;;;;;;;;;;;;;;;;;5066952;28;19958;-41
2022/07/08 12:45:14;;;;;;;;;;;;;;;;;;5067138;28;19915;-41
2022/07/08 12:47:41;;;;;;;;;;;;;;;;;;5066673;28;20701;-41
2022/07/08 12:50:07;;;;;;;;;;;;;;;;;;5066142;28;19952;-42
2022/07/08 12:52:33;;;;;;;;;;;;;;;;;;5065741;28;19971;-41
2022/07/08 12:54:59;;;;;;;;;;;;;;;;;;5067054;28;19996;-41
2022/07/08 12:57:25;;;;;;;;;;;;;;;;;;5066300;28;19912;-41
2022/07/08 12:59:51;;;;;;;;;;;;;;;;;;5066329;28;19947;-43
2022/07/08 13:02:17;;;;;;;;;;;;;;;;;;5065316;28;20372;-42
2022/07/08 13:04:43;;;;;;;;;;;;;;;;;;5066658;28;19916;-42
2022/07/08 13:07:11;;;;;;;;;;;;;;;;;;5064660;28;20429;-42
2022/07/08 13:09:37;;;;;;;;;;;;;;;;;;5066609;28;20472;-42
2022/07/08 13:12:03;;;;;;;;;;;;;;;;;;5066613;28;19917;-43
2022/07/08 13:14:29;;;;;;;;;;;;;;;;;;5066404;28;19938;-42
2022/07/08 13:16:55;;;;;;;;;;;;;;;;;;5067155;28;19908;-43
2022/07/08 13:19:21;;;;;;;;;;;;;;;;;;5064662;28;19923;-43
2022/07/08 13:21:48;;;;;;;;;;;;;;;;;;5067349;28;19916;-44
2022/07/08 13:24:14;;;;;;;;;;;;;;;;;;5048307;28;20144;-44
2022/07/08 13:26:40;;;;;;;;;;;;;;;;;;5064300;28;19916;-44
2022/07/08 13:29:06;;;;;;;;;;;;;;;;;;5065949;28;19939;-44
2022/07/08 13:31:32;;;;;;;;;;;;;;;;;;5069787;28;19920;-43
2022/07/08 13:33:59;;;;;;;;;;;;;;;;;;5051222;28;20019;-44
2022/07/08 13:36:26;;;;;;;;;;;;;;;;;;5051565;28;20417;-44
2022/07/08 13:38:53;;;;;;;;;;;;;;;;;;5068205;28;19916;-44
2022/07/08 13:41:19;;;;;;;;;;;;;;;;;;5068463;28;19916;-45
2022/07/08 13:43:45;;;;;;;;;;;;;;;;;;5067862;28;19920;-46
2022/07/08 13:46:13;;;;;;;;;;;;;;;;;;5068930;28;19916;-45
2022/07/08 13:48:39;;;;;;;;;;;;;;;;;;5067494;28;19920;-43
2022/07/08 13:51:05;;;;;;;;;;;;;;;;;;5069130;28;19989;-44
2022/07/08 13:53:31;;;;;;;;;;;;;;;;;;5067480;28;20003;-44
2022/07/08 13:55:57;;;;;;;;;;;;;;;;;;5069043;28;19935;-44
2022/07/08 13:58:23;;;;;;;;;;;;;;;;;;5066770;28;19912;-44
2022/07/08 14:00:49;;;;;;;;;;;;;;;;;;5050712;28;19913;-44
2022/07/08 14:03:15;;;;;;;;;;;;;;;;;;5048642;28;20288;-44
2022/07/08 14:05:41;;;;;;;;;;;;;;;;;;5069163;28;19966;-44
2022/07/08 14:08:07;;;;;;;;;;;;;;;;;;5049094;28;19923;-45
2022/07/08 14:10:33;;;;;;;;;;;;;;;;;;5068206;28;20472;-45
2022/07/08 14:12:58;;;;;;;;;;;;;;;;;;5069071;28;19921;-46
2022/07/08 14:15:24;;;;;;;;;;;;;;;;;;5068362;28;20011;-45
2022/07/08 14:17:50;;;;;;;;;;;;;;;;;;5068670;28;19921;-44
2022/07/08 14:20:16;;;;;;;;;;;;;;;;;;5068634;28;20037;-46
2022/07/08 14:22:43;;;;;;;;;;;;;;;;;;5066904;28;20299;-44
2022/07/08 14:25:09;;;;;;;;;;;;;;;;;;5053622;28;19912;-45
2022/07/08 14:27:35;;;;;;;;;;;;;;;;;;5070082;28;20330;-46
2022/07/08 14:30:01;;;;;;;;;;;;;;;;;;5070013;28;19969;-45
2022/07/08 14:32:27;;;;;;;;;;;;;;;;;;5069245;28;19982;-45
2022/07/08 14:34:53;;;;;;;;;;;;;;;;;;5068729;28;19924;-45
2022/07/08 14:37:19;;;;;;;;;;;;;;;;;;5068395;28;19913;-46
2022/07/08 14:39:45;;;;;;;;;;;;;;;;;;5068095;28;20073;-48
2022/07/08 14:42:12;;;;;;;;;;;;;;;;;;5067798;28;20006;-45
2022/07/08 14:44:38;;;;;;;;;;;;;;;;;;5068335;28;19916;-43
2022/07/08 14:47:04;;;;;;;;;;;;;;;;;;5050284;28;20398;-44
2022/07/08 14:49:29;;;;;;;;;;;;;;;;;;5068188;28;19916;-44
2022/07/08 14:51:55;;;;;;;;;;;;;;;;;;5068250;28;19916;-44
2022/07/08 14:54:21;;;;;;;;;;;;;;;;;;5067444;28;19924;-45
2022/07/08 14:56:48;;;;;;;;;;;;;;;;;;5068308;28;19924;-46
2022/07/08 14:59:14;;;;;;;;;;;;;;;;;;5067735;28;19940;-44
2022/07/08 15:01:40;;;;;;;;;;;;;;;;;;5067611;28;20442;-45
2022/07/08 15:04:06;;;;;;;;;;;;;;;;;;5068214;28;19913;-45
2022/07/08 15:06:32;;;;;;;;;;;;;;;;;;5067437;28;19916;-44
2022/07/08 15:08:58;;;;;;;;;;;;;;;;;;5067646;28;19952;-45
2022/07/08 15:11:23;;;;;;;;;;;;;;;;;;5057846;28;19970;-45
2022/07/08 15:13:49;;;;;;;;;;;;;;;;;;5067693;28;20033;-45
2022/07/08 15:16:16;;;;;;;;;;;;;;;;;;5067852;28;20486;-44
2022/07/08 15:18:42;;;;;;;;;;;;;;;;;;5067749;28;19916;-44
2022/07/08 15:21:08;;;;;;;;;;;;;;;;;;5068236;28;20310;-45
2022/07/08 15:23:34;;;;;;;;;;;;;;;;;;5067255;28;19912;-44
2022/07/08 15:26:02;;;;;;;;;;;;;;;;;;5066986;28;19947;-44
2022/07/08 15:28:28;;;;;;;;;;;;;;;;;;5066484;28;19977;-43
2022/07/08 15:30:54;;;;;;;;;;;;;;;;;;5048808;28;19917;-45
2022/07/08 15:33:21;;;;;;;;;;;;;;;;;;5067498;28;19915;-44
2022/07/08 15:35:47;;;;;;;;;;;;;;;;;;5067058;28;19916;-44
2022/07/08 15:38:13;;;;;;;;;;;;;;;;;;5066901;28;20023;-45
2022/07/08 15:40:38;;;;;;;;;;;;;;;;;;5067070;28;19920;-44
2022/07/08 15:43:04;;;;;;;;;;;;;;;;;;5066638;28;19969;-45
2022/07/08 15:45:30;;;;;;;;;;;;;;;;;;5066460;28;19912;-46
2022/07/08 15:47:56;;;;;;;;;;;;;;;;;;5049172;28;20319;-44
2022/07/08 15:50:22;;;;;;;;;;;;;;;;;;5067287;28;20214;-43
2022/07/08 15:52:48;;;;;;;;;;;;;;;;;;5067304;28;19923;-44
2022/07/08 15:55:14;;;;;;;;;;;;;;;;;;5067350;28;20371;-43
2022/07/08 15:57:40;;;;;;;;;;;;;;;;;;5067432;28;19946;-44
2022/07/08 16:00:06;;;;;;;;;;;;;;;;;;5049482;28;20319;-44
2022/07/08 16:02:32;;;;;;;;;;;;;;;;;;5066627;28;19916;-43
2022/07/08 16:04:57;;;;;;;;;;;;;;;;;;5066651;28;19921;-44
2022/07/08 16:07:23;;;;;;;;;;;;;;;;;;5048565;28;20396;-44
2022/07/08 16:09:49;;;;;;;;;;;;;;;;;;5048809;28;20395;-46
2022/07/08 16:12:15;;;;;;;;;;;;;;;;;;5066627;28;19916;-45
2022/07/08 16:14:42;;;;;;;;;;;;;;;;;;5065923;28;21215;-44
2022/07/08 16:17:08;;;;;;;;;;;;;;;;;;5066181;28;19920;-44
2022/07/08 16:19:34;;;;;;;;;;;;;;;;;;5065853;28;19912;-48
2022/07/08 16:22:00;;;;;;;;;;;;;;;;;;5046647;28;20022;-44
2022/07/08 16:24:26;;;;;;;;;;;;;;;;;;5064278;28;20546;-45
2022/07/08 16:26:52;;;;;;;;;;;;;;;;;;5066222;28;20458;-43
2022/07/08 16:29:17;;;;;;;;;;;;;;;;;;5066337;28;20015;-44
2022/07/08 16:31:44;;;;;;;;;;;;;;;;;;5064823;28;19916;-47
2022/07/08 16:34:10;;;;;;;;;;;;;;;;;;5066914;28;20377;-45
2022/07/08 16:36:36;;;;;;;;;;;;;;;;;;5065156;28;20007;-45
2022/07/08 16:39:02;;;;;;;;;;;;;;;;;;5065420;28;19924;-44
2022/07/08 16:41:28;;;;;;;;;;;;;;;;;;5058227;28;19925;-46
2022/07/08 16:43:54;;;;;;;;;;;;;;;;;;5067005;28;20291;-48